AirNav   Air Wisconsin pilot careers
 
 714 users online  

E42 Major Samuel B Cornelius Field Airport
Spearman, Texas, USA


FAA INFORMATION EFFECTIVE 01 FEBRUARY 2018

Location

FAA Identifier: E42
Lat/Long: 36-13-15.6000N / 101-11-40.2000W
36-13.260000N / 101-11.670000W
36.2210000 / -101.1945000
(estimated)
Elevation: 3090 ft. / 941.8 m (surveyed)
Variation: 09E (1985)
From city: 1 mile N of SPEARMAN, TX
Time zone: UTC -6 (UTC -5 during Daylight Saving Time)
Zip code: 79081

Airport Operations

Airport use: Open to the public
Activation date: 06/1982
Control tower: no
ARTCC: ALBUQUERQUE CENTER
FSS: FORT WORTH FLIGHT SERVICE STATION
NOTAMs facility: FTW (NOTAM-D service available)
Attendance: UNATNDD
Wind indicator: lighted
Segmented circle: yes
Lights: MIRL RY 02/20 PRESET LOW INTST; TO INCR INTST & ACTVT PAPI RYS 02 & 20 - 122.9.
Beacon: white-green (lighted land airport)
Operates sunset to sunrise.

Airport Communications

CTAF: 122.9
  • APCH/DEP SERVICE PROVIDED BY ALBUQUERQUE ARTCC ON FREQS 127.85/285.475 (AMARILLO RCAG).

Nearby radio navigation aids

VOR radial/distance  VOR name  Freq  Var
BGDr009/26.5BORGER VORTAC108.6011E

 
NDB name  Hdg/Dist  Freq  Var  ID
PERRYTON235/24.526607EPYX .--. -.-- -..-
GUYMON144/32.727509EGUY --. ..- -.--

Airport Services

Fuel available: 100LL
FOR FUEL CALL 806-659-2422 & HGR SPACE 806-659-2524 MON-SAT 0730-1900.
Parking: hangars and tiedowns

Runway Information

Runway 2/20

Dimensions: 5022 x 75 ft. / 1531 x 23 m
Surface: asphalt, in good condition
Weight bearing capacity: 
Single wheel: 12.5
Runway edge lights: medium intensity
RUNWAY 2  RUNWAY 20
Latitude: 36-12.900080N36-13.621058N
Longitude: 101-11.920572W101-11.419197W
Elevation: 3086.2 ft.3090.0 ft.
Traffic pattern: leftleft
Runway heading: 020 magnetic, 029 true200 magnetic, 209 true
Markings: nonprecision, in good conditionnonprecision, in good condition
Visual slope indicator: 2-light PAPI on left
PAPI OTS
2-light PAPI on left
Touchdown point: yes, no lightsyes, no lights
Obstructions: 10 ft. road, 534 ft. from runway, 299 ft. right of centerline, 33:1 slope to clearnone

Airport Ownership and Management from official FAA records

Ownership: Publicly-owned
Owner: CITY OF SPEARMAN
PO BOX 37
SPEARMAN, TX 79081
Phone 806-659-2524
Manager: SUSAN BELLSNYDER
PO BOX 37
SPEARMAN, TX 79081
Phone 806-659-2524
CITY MANAGER.

Airport Operational Statistics

Aircraft based on the field: 12
Single engine airplanes: 10
Ultralights: 2
    
Aircraft operations: avg 63/week *
67% local general aviation
33% transient general aviation
* for 12-month period ending 20 September 2017

Additional Remarks

NO LINE OF SIGHT BTN RY ENDS.

Instrument Procedures

NOTE: All procedures below are presented as PDF files. If you need a reader for these files, you should download the free Adobe Reader.

NOT FOR NAVIGATION. Please procure official charts for flight.
FAA instrument procedures published for use between 1 February 2018 at 0901Z and 1 March 2018 at 0900Z.

 
IAPs - Instrument Approach Procedures
RNAV (GPS) RWY 02   download (190KB)
RNAV (GPS) RWY 20   download (196KB)
VOR/DME RWY 02   download (210KB)
NOTE: Special Take-Off Minimums/Departure Procedures apply   download (113KB)

Other nearby airports with instrument procedures:

E19 - Gruver Municipal Airport (12 nm W)
KPYX - Perryton Ochiltree County Airport (24 nm NE)
KGUY - Guymon Municipal Airport (32 nm NW)
KBGD - Hutchinson County Airport (33 nm S)
KPPA - Perry Lefors Field Airport (38 nm S)
 
Loc | Ops | Rwys | IFR | FBO | Links
Com | Nav | Svcs | Stats | Notes

AirNav Hotels Sweepstakes
 
Area around E42 (Major Samuel B Cornelius Field Airport)
 
Road maps at: MapQuest Bing Google
 
Aerial photo
WARNING: Photo may not be current or correct
Aerial photo of E42 (Major Samuel B Cornelius Field Airport)
Photo by Kathy Cook.
Photo taken 11-Jul-2010

Do you have a better or more recent aerial photo of Major Samuel B Cornelius Field Airport that you would like to share? If so, please send us your photo.

 
Sectional chart

 
Airport distance calculator
Flying to Major Samuel B Cornelius Field Airport? Find the distance to fly.

From to E42

Sunrise and sunset
Times for 18-Feb-2018
 Local
(UTC-6)
 Zulu
(UTC)
Morning civil twilight07:0413:04
Sunrise07:3013:30
Sunset18:2800:28
Evening civil twilight18:5400:54

Current date and time
Zulu (UTC)  19-Feb-2018 04:52:58
Local (UTC-6)  18-Feb-2018 22:52:58
 
METAR
KBPC 
21nm S 
190435Z AUTO 22016KT 10SM CLR 18/03 A2963 RMK AO2
KPYX 
25nm NE 
190435Z AUTO 21015KT 10SM CLR 18/05 A2959 RMK AO2 T01780050
KGUY 
31nm NW 
190353Z AUTO 21022KT 10SM CLR 17/04 A2955 RMK AO2 PK WND 20028/0340 SLP980 T01670044
KBGD 
33nm S 
190351Z AUTO 20015G21KT 10SM CLR 18/04 A2965 RMK AO2 SLP019 T01830044
TAF
KGUY 
31nm NW 
181720Z 1818/1918 22030G40KT P6SM SKC FM190100 21018KT P6SM SCT200 FM191700 21020G30KT P6SM SCT200
NOTAMs
Click for the latest NOTAMs
NOTAMs are issued by the DoD/FAA and will open in a separate window not controlled by AirNav.

 

 
 

FBO, Fuel Providers, and Aircraft Ground Support

  
 Business Name 
 
 Contact 
 
 Services / Description 
 
Fuel Prices
 
Comments
  
City of Spearman (FBO) 806-659-2524
no information available

If you are affiliated with City of Spearman (FBO) and would like to show here your services, contact info, web link, logo, and more, click here
100LL
AS $5.41 
 Updated 22-Sep-2014
 
   write
AS=Assisted/Self Service
Update Fuel Prices
 

Would you like to see your business listed on this page?

 If your business provides an interesting product or service to pilots, flight crews, aircraft, or users of the Major Samuel B Cornelius Field Airport, you should consider listing it here.  To start the listing process, click on the button below
 
Add a business
 

Other Pages about Major Samuel B Cornelius Field Airport

Update a link
 
Copyright © AirNav, LLC. All rights reserved. Privacy Policy  Contact